sensor_id;sensor_type;location;lat;lon;timestamp;pressure;altitude;pressure_sealevel;temperature;humidity
4024;BME280;2026;51.002;13.668;2023-07-24T00:03:13;98300.28;;;22.43;44.53
4024;BME280;2026;51.002;13.668;2023-07-24T00:08:16;98279.25;;;22.37;45.06
4024;BME280;2026;51.002;13.668;2023-07-24T00:13:19;98276.06;;;22.40;44.79
4024;BME280;2026;51.002;13.668;2023-07-24T00:18:24;98279.03;;;22.20;46.27
4024;BME280;2026;51.002;13.668;2023-07-24T00:23:27;98277.50;;;22.24;46.53
4024;BME280;2026;51.002;13.668;2023-07-24T00:28:30;98252.56;;;22.25;46.47
4024;BME280;2026;51.002;13.668;2023-07-24T00:33:35;98254.66;;;22.30;46.32
4024;BME280;2026;51.002;13.668;2023-07-24T00:38:39;98247.34;;;22.06;47.41
4024;BME280;2026;51.002;13.668;2023-07-24T00:43:41;98252.22;;;22.04;47.57
4024;BME280;2026;51.002;13.668;2023-07-24T00:48:46;98246.94;;;22.02;48.28
4024;BME280;2026;51.002;13.668;2023-07-24T00:53:49;98256.66;;;22.05;47.71
4024;BME280;2026;51.002;13.668;2023-07-24T00:58:54;98251.06;;;22.11;47.18
4024;BME280;2026;51.002;13.668;2023-07-24T01:03:59;98242.81;;;21.93;48.35
4024;BME280;2026;51.002;13.668;2023-07-24T01:09:02;98237.63;;;21.85;47.92
4024;BME280;2026;51.002;13.668;2023-07-24T01:14:09;98232.84;;;21.80;47.91
4024;BME280;2026;51.002;13.668;2023-07-24T01:19:30;98247.75;;;21.84;47.74
4024;BME280;2026;51.002;13.668;2023-07-24T01:24:39;98239.47;;;21.91;46.84
4024;BME280;2026;51.002;13.668;2023-07-24T01:29:50;98236.03;;;21.95;47.15
4024;BME280;2026;51.002;13.668;2023-07-24T01:34:54;98232.59;;;21.82;48.00
4024;BME280;2026;51.002;13.668;2023-07-24T01:39:58;98233.81;;;21.86;47.41
4024;BME280;2026;51.002;13.668;2023-07-24T01:45:04;98232.59;;;21.82;47.89
4024;BME280;2026;51.002;13.668;2023-07-24T01:50:08;98219.28;;;21.85;47.54
4024;BME280;2026;51.002;13.668;2023-07-24T01:55:11;98218.66;;;21.83;47.83
4024;BME280;2026;51.002;13.668;2023-07-24T02:00:15;98213.72;;;21.74;47.88
4024;BME280;2026;51.002;13.668;2023-07-24T02:05:18;98206.38;;;21.68;48.09
4024;BME280;2026;51.002;13.668;2023-07-24T02:10:21;98198.56;;;21.71;47.96
4024;BME280;2026;51.002;13.668;2023-07-24T02:15:26;98205.09;;;21.88;47.66
4024;BME280;2026;51.002;13.668;2023-07-24T02:20:29;98195.16;;;21.76;48.06
4024;BME280;2026;51.002;13.668;2023-07-24T02:25:31;98202.50;;;21.57;48.94
4024;BME280;2026;51.002;13.668;2023-07-24T02:30:39;98198.34;;;21.29;50.11
4024;BME280;2026;51.002;13.668;2023-07-24T02:35:42;98196.38;;;21.37;50.12
4024;BME280;2026;51.002;13.668;2023-07-24T02:40:45;98191.38;;;21.52;49.98
4024;BME280;2026;51.002;13.668;2023-07-24T02:45:50;98195.22;;;21.69;49.32
4024;BME280;2026;51.002;13.668;2023-07-24T02:50:53;98197.34;;;21.49;48.73
4024;BME280;2026;51.002;13.668;2023-07-24T02:55:55;98195.81;;;21.53;49.82
4024;BME280;2026;51.002;13.668;2023-07-24T03:01:04;98194.38;;;21.50;49.43
4024;BME280;2026;51.002;13.668;2023-07-24T03:06:08;98190.47;;;21.40;49.84
4024;BME280;2026;51.002;13.668;2023-07-24T03:11:11;98189.72;;;21.51;49.73
4024;BME280;2026;51.002;13.668;2023-07-24T03:16:15;98197.94;;;21.51;50.11
4024;BME280;2026;51.002;13.668;2023-07-24T03:21:21;98181.94;;;21.48;49.18
4024;BME280;2026;51.002;13.668;2023-07-24T03:26:24;98181.88;;;21.54;50.19
4024;BME280;2026;51.002;13.668;2023-07-24T03:31:28;98178.06;;;21.55;49.32
4024;BME280;2026;51.002;13.668;2023-07-24T03:36:31;98169.09;;;21.48;49.57
4024;BME280;2026;51.002;13.668;2023-07-24T03:41:35;98177.53;;;21.65;49.03
4024;BME280;2026;51.002;13.668;2023-07-24T03:46:40;98177.22;;;21.55;49.76
4024;BME280;2026;51.002;13.668;2023-07-24T03:51:43;98172.47;;;21.69;48.73
4024;BME280;2026;51.002;13.668;2023-07-24T03:56:45;98166.34;;;21.67;49.58
4024;BME280;2026;51.002;13.668;2023-07-24T04:01:50;98155.31;;;21.73;49.60
4024;BME280;2026;51.002;13.668;2023-07-24T04:06:53;98145.25;;;21.67;49.16
4024;BME280;2026;51.002;13.668;2023-07-24T04:11:56;98149.00;;;21.73;49.63
4024;BME280;2026;51.002;13.668;2023-07-24T04:17:00;98140.16;;;21.71;49.72
4024;BME280;2026;51.002;13.668;2023-07-24T04:22:03;98135.72;;;21.88;49.42
4024;BME280;2026;51.002;13.668;2023-07-24T04:27:06;98134.72;;;22.01;48.85
4024;BME280;2026;51.002;13.668;2023-07-24T04:32:10;98130.63;;;22.10;48.69
4024;BME280;2026;51.002;13.668;2023-07-24T04:37:13;98133.09;;;22.30;47.54
4024;BME280;2026;51.002;13.668;2023-07-24T04:42:16;98135.13;;;22.34;47.40
4024;BME280;2026;51.002;13.668;2023-07-24T04:47:21;98143.03;;;22.42;46.98
4024;BME280;2026;51.002;13.668;2023-07-24T04:52:24;98141.25;;;22.48;46.78
4024;BME280;2026;51.002;13.668;2023-07-24T04:57:26;98136.72;;;22.95;45.47
4024;BME280;2026;51.002;13.668;2023-07-24T05:02:31;98130.06;;;23.90;43.99
4024;BME280;2026;51.002;13.668;2023-07-24T05:07:34;98124.97;;;24.84;40.85
4024;BME280;2026;51.002;13.668;2023-07-24T05:12:37;98120.47;;;23.52;43.28
4024;BME280;2026;51.002;13.668;2023-07-24T05:17:41;98116.75;;;23.46;44.34
4024;BME280;2026;51.002;13.668;2023-07-24T05:22:44;98106.13;;;23.50;44.13
4024;BME280;2026;51.002;13.668;2023-07-24T05:27:47;98117.22;;;23.55;44.21
4024;BME280;2026;51.002;13.668;2023-07-24T05:32:51;98126.53;;;23.54;44.85
4024;BME280;2026;51.002;13.668;2023-07-24T05:37:54;98121.53;;;23.39;45.00
4024;BME280;2026;51.002;13.668;2023-07-24T05:42:57;98114.25;;;23.45;43.81
4024;BME280;2026;51.002;13.668;2023-07-24T05:48:02;98124.97;;;23.82;43.26
4024;BME280;2026;51.002;13.668;2023-07-24T05:53:05;98117.22;;;23.67;43.90
4024;BME280;2026;51.002;13.668;2023-07-24T05:58:08;98121.06;;;24.06;42.63
4024;BME280;2026;51.002;13.668;2023-07-24T06:03:12;98118.59;;;24.21;43.09
4024;BME280;2026;51.002;13.668;2023-07-24T06:08:15;98119.09;;;24.30;41.79
4024;BME280;2026;51.002;13.668;2023-07-24T06:13:18;98116.97;;;25.93;38.95
4024;BME280;2026;51.002;13.668;2023-07-24T06:18:23;98114.31;;;26.52;38.03
4024;BME280;2026;51.002;13.668;2023-07-24T06:23:26;98122.59;;;26.79;37.45
4024;BME280;2026;51.002;13.668;2023-07-24T06:28:29;98120.69;;;27.16;37.95
4024;BME280;2026;51.002;13.668;2023-07-24T06:33:35;98114.81;;;26.44;38.05
4024;BME280;2026;51.002;13.668;2023-07-24T06:38:38;98119.28;;;26.50;37.98
4024;BME280;2026;51.002;13.668;2023-07-24T06:43:41;98120.09;;;27.09;38.11
4024;BME280;2026;51.002;13.668;2023-07-24T06:48:45;98120.72;;;27.59;36.83
4024;BME280;2026;51.002;13.668;2023-07-24T06:53:48;98118.34;;;26.66;37.53
4024;BME280;2026;51.002;13.668;2023-07-24T06:58:51;98114.03;;;26.27;38.12
4024;BME280;2026;51.002;13.668;2023-07-24T07:03:56;98101.84;;;26.76;37.87
4024;BME280;2026;51.002;13.668;2023-07-24T07:08:59;98107.44;;;26.54;37.64
4024;BME280;2026;51.002;13.668;2023-07-24T07:14:02;98113.72;;;26.77;37.11
4024;BME280;2026;51.002;13.668;2023-07-24T07:19:06;98117.63;;;27.13;37.70
4024;BME280;2026;51.002;13.668;2023-07-24T07:24:10;98109.22;;;27.35;37.05
4024;BME280;2026;51.002;13.668;2023-07-24T07:29:13;98107.31;;;27.40;36.32
4024;BME280;2026;51.002;13.668;2023-07-24T07:34:18;98107.59;;;27.39;36.92
4024;BME280;2026;51.002;13.668;2023-07-24T07:39:21;98092.56;;;27.25;36.58
4024;BME280;2026;51.002;13.668;2023-07-24T07:44:24;98084.78;;;27.64;36.75
4024;BME280;2026;51.002;13.668;2023-07-24T07:49:28;98072.19;;;28.03;35.92
4024;BME280;2026;51.002;13.668;2023-07-24T07:54:32;98052.97;;;28.69;35.67
4024;BME280;2026;51.002;13.668;2023-07-24T07:59:35;98055.47;;;29.02;36.91
4024;BME280;2026;51.002;13.668;2023-07-24T08:04:39;98062.94;;;29.96;34.89
4024;BME280;2026;51.002;13.668;2023-07-24T08:09:42;98052.38;;;30.08;34.82
4024;BME280;2026;51.002;13.668;2023-07-24T08:14:45;98033.00;;;28.67;34.73
4024;BME280;2026;51.002;13.668;2023-07-24T08:19:49;98031.25;;;30.02;32.37
4024;BME280;2026;51.002;13.668;2023-07-24T08:24:52;98031.94;;;30.28;34.57
4024;BME280;2026;51.002;13.668;2023-07-24T08:29:57;98034.63;;;30.82;32.08
4024;BME280;2026;51.002;13.668;2023-07-24T08:35:02;98019.56;;;31.89;29.79
4024;BME280;2026;51.002;13.668;2023-07-24T08:40:07;98015.31;;;31.73;29.42
4024;BME280;2026;51.002;13.668;2023-07-24T08:45:11;98001.22;;;31.11;31.76
4024;BME280;2026;51.002;13.668;2023-07-24T08:50:16;97982.38;;;31.56;33.22
4024;BME280;2026;51.002;13.668;2023-07-24T08:55:20;97986.72;;;31.86;31.71
4024;BME280;2026;51.002;13.668;2023-07-24T09:00:24;97980.41;;;31.99;30.47
4024;BME280;2026;51.002;13.668;2023-07-24T09:05:28;97977.03;;;31.84;30.26
4024;BME280;2026;51.002;13.668;2023-07-24T09:10:31;97985.63;;;30.52;32.87
4024;BME280;2026;51.002;13.668;2023-07-24T09:15:41;97982.94;;;29.54;34.40
4024;BME280;2026;51.002;13.668;2023-07-24T09:20:46;97982.78;;;28.84;35.53
4024;BME280;2026;51.002;13.668;2023-07-24T09:25:49;97993.28;;;29.18;35.06
4024;BME280;2026;51.002;13.668;2023-07-24T09:30:53;97998.63;;;28.79;35.89
4024;BME280;2026;51.002;13.668;2023-07-24T09:36:00;97991.66;;;28.15;36.80
4024;BME280;2026;51.002;13.668;2023-07-24T09:41:04;97986.44;;;28.59;36.04
4024;BME280;2026;51.002;13.668;2023-07-24T09:46:08;97978.63;;;28.00;36.66
4024;BME280;2026;51.002;13.668;2023-07-24T09:51:14;97987.75;;;27.96;36.19
4024;BME280;2026;51.002;13.668;2023-07-24T09:56:18;97981.94;;;27.92;36.97
4024;BME280;2026;51.002;13.668;2023-07-24T10:01:32;97975.84;;;27.85;37.15
4024;BME280;2026;51.002;13.668;2023-07-24T10:06:37;97968.69;;;28.15;37.29
4024;BME280;2026;51.002;13.668;2023-07-24T10:11:40;97967.59;;;28.46;36.84
4024;BME280;2026;51.002;13.668;2023-07-24T10:16:44;97969.81;;;28.69;37.63
4024;BME280;2026;51.002;13.668;2023-07-24T10:21:51;97961.78;;;28.43;36.66
4024;BME280;2026;51.002;13.668;2023-07-24T10:26:55;97969.00;;;28.38;37.85
4024;BME280;2026;51.002;13.668;2023-07-24T10:31:58;97969.84;;;27.36;38.98
4024;BME280;2026;51.002;13.668;2023-07-24T10:37:06;97972.41;;;27.58;39.45
4024;BME280;2026;51.002;13.668;2023-07-24T10:42:10;97965.47;;;26.98;40.50
4024;BME280;2026;51.002;13.668;2023-07-24T10:47:14;97967.31;;;27.24;40.52
4024;BME280;2026;51.002;13.668;2023-07-24T10:52:27;97979.81;;;26.52;42.13
4024;BME280;2026;51.002;13.668;2023-07-24T10:57:30;97970.31;;;26.75;41.91
4024;BME280;2026;51.002;13.668;2023-07-24T11:02:33;97954.19;;;27.67;41.79
4024;BME280;2026;51.002;13.668;2023-07-24T11:07:38;97942.06;;;27.93;40.20
4024;BME280;2026;51.002;13.668;2023-07-24T11:12:41;97937.59;;;29.04;38.63
4024;BME280;2026;51.002;13.668;2023-07-24T11:17:44;97929.94;;;28.35;39.95
4024;BME280;2026;51.002;13.668;2023-07-24T11:22:48;97931.28;;;28.22;41.33
4024;BME280;2026;51.002;13.668;2023-07-24T11:27:51;97918.44;;;27.50;42.94
4024;BME280;2026;51.002;13.668;2023-07-24T11:32:56;97894.75;;;28.46;40.77
4024;BME280;2026;51.002;13.668;2023-07-24T11:38:02;97884.47;;;28.51;40.41
4024;BME280;2026;51.002;13.668;2023-07-24T11:43:14;97891.63;;;27.56;42.45
4024;BME280;2026;51.002;13.668;2023-07-24T11:48:19;97877.28;;;27.99;41.12
4024;BME280;2026;51.002;13.668;2023-07-24T11:53:25;97868.41;;;27.72;41.40
4024;BME280;2026;51.002;13.668;2023-07-24T11:58:29;97866.78;;;27.96;41.17
4024;BME280;2026;51.002;13.668;2023-07-24T12:03:32;97871.75;;;27.74;41.43
4024;BME280;2026;51.002;13.668;2023-07-24T12:08:37;97867.31;;;28.19;40.54
4024;BME280;2026;51.002;13.668;2023-07-24T12:13:40;97867.63;;;27.76;42.05
4024;BME280;2026;51.002;13.668;2023-07-24T12:18:43;97870.59;;;27.50;41.57
4024;BME280;2026;51.002;13.668;2023-07-24T12:23:47;97874.41;;;27.38;42.54
4024;BME280;2026;51.002;13.668;2023-07-24T12:28:50;97876.06;;;27.24;43.36
4024;BME280;2026;51.002;13.668;2023-07-24T12:33:53;97900.03;;;27.08;44.85
4024;BME280;2026;51.002;13.668;2023-07-24T12:38:58;97896.44;;;27.03;44.61
4024;BME280;2026;51.002;13.668;2023-07-24T12:44:00;97942.31;;;26.30;47.13
4024;BME280;2026;51.002;13.668;2023-07-24T12:49:03;97950.59;;;25.71;47.98
4024;BME280;2026;51.002;13.668;2023-07-24T12:54:08;97956.66;;;24.63;52.52
4024;BME280;2026;51.002;13.668;2023-07-24T12:59:31;97927.25;;;23.68;58.76
4024;BME280;2026;51.002;13.668;2023-07-24T13:04:34;97915.84;;;22.44;64.95
4024;BME280;2026;51.002;13.668;2023-07-24T13:09:38;97902.88;;;21.33;74.44
4024;BME280;2026;51.002;13.668;2023-07-24T13:14:41;97874.84;;;21.61;72.82
4024;BME280;2026;51.002;13.668;2023-07-24T13:19:44;97880.03;;;22.86;70.69
4024;BME280;2026;51.002;13.668;2023-07-24T13:24:48;97884.13;;;22.37;72.92
4024;BME280;2026;51.002;13.668;2023-07-24T13:29:51;97883.22;;;22.83;71.13
4024;BME280;2026;51.002;13.668;2023-07-24T13:34:55;97862.91;;;22.96;71.78
4024;BME280;2026;51.002;13.668;2023-07-24T13:39:59;97848.44;;;23.74;70.23
4024;BME280;2026;51.002;13.668;2023-07-24T13:45:03;97846.63;;;24.95;65.49
4024;BME280;2026;51.002;13.668;2023-07-24T13:50:06;97826.84;;;24.98;63.65
4024;BME280;2026;51.002;13.668;2023-07-24T13:55:11;97800.69;;;24.79;61.53
4024;BME280;2026;51.002;13.668;2023-07-24T14:00:16;97776.13;;;25.21;58.17
4024;BME280;2026;51.002;13.668;2023-07-24T14:05:19;97758.38;;;24.63;61.55
4024;BME280;2026;51.002;13.668;2023-07-24T14:10:23;97753.84;;;25.60;56.55
4024;BME280;2026;51.002;13.668;2023-07-24T14:15:26;97756.81;;;25.21;58.57
4024;BME280;2026;51.002;13.668;2023-07-24T14:20:29;97746.69;;;25.64;55.81
4024;BME280;2026;51.002;13.668;2023-07-24T14:25:33;97741.16;;;26.01;55.14
4024;BME280;2026;51.002;13.668;2023-07-24T14:30:36;97734.41;;;25.77;54.11
4024;BME280;2026;51.002;13.668;2023-07-24T14:35:39;97735.84;;;25.84;53.45
4024;BME280;2026;51.002;13.668;2023-07-24T14:40:44;97724.59;;;25.59;52.91
4024;BME280;2026;51.002;13.668;2023-07-24T14:45:47;97724.03;;;25.57;54.02
4024;BME280;2026;51.002;13.668;2023-07-24T14:50:50;97692.16;;;25.71;53.16
4024;BME280;2026;51.002;13.668;2023-07-24T14:55:54;97671.16;;;26.17;53.76
4024;BME280;2026;51.002;13.668;2023-07-24T15:00:57;97669.75;;;26.05;51.92
4024;BME280;2026;51.002;13.668;2023-07-24T15:06:00;97670.88;;;26.14;52.22
4024;BME280;2026;51.002;13.668;2023-07-24T15:11:08;97676.44;;;26.24;52.12
4024;BME280;2026;51.002;13.668;2023-07-24T15:16:12;97674.97;;;26.06;52.57
4024;BME280;2026;51.002;13.668;2023-07-24T15:21:15;97667.38;;;25.76;52.90
4024;BME280;2026;51.002;13.668;2023-07-24T15:26:20;97642.66;;;26.02;53.17
4024;BME280;2026;51.002;13.668;2023-07-24T15:31:23;97661.78;;;26.18;53.06
4024;BME280;2026;51.002;13.668;2023-07-24T15:36:26;97652.81;;;25.91;52.76
4024;BME280;2026;51.002;13.668;2023-07-24T15:41:30;97654.72;;;26.48;50.73
4024;BME280;2026;51.002;13.668;2023-07-24T15:46:34;97641.75;;;26.48;51.62
4024;BME280;2026;51.002;13.668;2023-07-24T15:51:37;97644.28;;;26.60;51.16
4024;BME280;2026;51.002;13.668;2023-07-24T15:56:43;97634.38;;;27.10;49.18
4024;BME280;2026;51.002;13.668;2023-07-24T16:01:46;97620.56;;;27.05;50.33
4024;BME280;2026;51.002;13.668;2023-07-24T16:06:49;97624.16;;;27.10;49.06
4024;BME280;2026;51.002;13.668;2023-07-24T16:11:53;97605.34;;;26.67;49.92
4024;BME280;2026;51.002;13.668;2023-07-24T16:16:56;97590.38;;;27.39;48.18
4024;BME280;2026;51.002;13.668;2023-07-24T16:21:59;97601.72;;;27.53;45.54
4024;BME280;2026;51.002;13.668;2023-07-24T16:27:04;97604.78;;;27.31;44.15
4024;BME280;2026;51.002;13.668;2023-07-24T16:32:09;97618.03;;;27.39;43.55
4024;BME280;2026;51.002;13.668;2023-07-24T16:37:12;97614.75;;;27.32;43.48
4024;BME280;2026;51.002;13.668;2023-07-24T16:42:16;97623.28;;;27.56;43.15
4024;BME280;2026;51.002;13.668;2023-07-24T16:47:19;97610.06;;;27.27;43.31
4024;BME280;2026;51.002;13.668;2023-07-24T16:52:25;97605.91;;;27.25;41.85
4024;BME280;2026;51.002;13.668;2023-07-24T16:57:29;97597.88;;;27.13;42.91
4024;BME280;2026;51.002;13.668;2023-07-24T17:02:32;97595.66;;;27.15;42.76
4024;BME280;2026;51.002;13.668;2023-07-24T17:07:38;97599.81;;;26.67;43.83
4024;BME280;2026;51.002;13.668;2023-07-24T17:12:43;97595.06;;;26.37;44.30
4024;BME280;2026;51.002;13.668;2023-07-24T17:17:46;97595.09;;;26.57;44.21
4024;BME280;2026;51.002;13.668;2023-07-24T17:22:49;97582.97;;;26.68;44.17
4024;BME280;2026;51.002;13.668;2023-07-24T17:27:54;97578.00;;;26.60;44.29
4024;BME280;2026;51.002;13.668;2023-07-24T17:32:57;97578.22;;;26.43;44.42
4024;BME280;2026;51.002;13.668;2023-07-24T17:38:01;97587.00;;;26.30;44.81
4024;BME280;2026;51.002;13.668;2023-07-24T17:43:05;97583.47;;;26.35;45.43
4024;BME280;2026;51.002;13.668;2023-07-24T17:48:09;97572.91;;;26.27;46.02
4024;BME280;2026;51.002;13.668;2023-07-24T17:53:12;97566.28;;;26.22;46.61
4024;BME280;2026;51.002;13.668;2023-07-24T17:58:16;97559.28;;;25.84;47.48
4024;BME280;2026;51.002;13.668;2023-07-24T18:03:19;97557.06;;;25.86;47.47
4024;BME280;2026;51.002;13.668;2023-07-24T18:08:22;97579.88;;;25.67;48.50
4024;BME280;2026;51.002;13.668;2023-07-24T18:13:26;97578.16;;;25.60;48.42
4024;BME280;2026;51.002;13.668;2023-07-24T18:18:29;97594.97;;;25.54;48.59
4024;BME280;2026;51.002;13.668;2023-07-24T18:23:32;97586.28;;;25.35;48.76
4024;BME280;2026;51.002;13.668;2023-07-24T18:28:37;97585.19;;;25.36;49.17
4024;BME280;2026;51.002;13.668;2023-07-24T18:33:40;97593.34;;;25.16;49.71
4024;BME280;2026;51.002;13.668;2023-07-24T18:38:43;97591.16;;;25.18;49.51
4024;BME280;2026;51.002;13.668;2023-07-24T18:43:47;97607.44;;;25.19;50.06
4024;BME280;2026;51.002;13.668;2023-07-24T18:48:50;97592.25;;;25.17;49.88
4024;BME280;2026;51.002;13.668;2023-07-24T18:53:53;97593.69;;;24.92;50.61
4024;BME280;2026;51.002;13.668;2023-07-24T18:58:58;97599.84;;;24.99;50.74
4024;BME280;2026;51.002;13.668;2023-07-24T19:04:01;97639.56;;;25.09;50.99
4024;BME280;2026;51.002;13.668;2023-07-24T19:09:04;97697.94;;;23.36;53.79
4024;BME280;2026;51.002;13.668;2023-07-24T19:14:08;97714.59;;;22.96;54.17
4024;BME280;2026;51.002;13.668;2023-07-24T19:19:11;97720.75;;;23.03;54.33
4024;BME280;2026;51.002;13.668;2023-07-24T19:24:14;97705.28;;;22.68;56.49
4024;BME280;2026;51.002;13.668;2023-07-24T19:29:19;97719.75;;;22.35;58.28
4024;BME280;2026;51.002;13.668;2023-07-24T19:34:21;97726.59;;;22.09;58.86
4024;BME280;2026;51.002;13.668;2023-07-24T19:39:24;97759.97;;;21.83;61.12
4024;BME280;2026;51.002;13.668;2023-07-24T19:44:29;97757.00;;;21.49;63.31
4024;BME280;2026;51.002;13.668;2023-07-24T19:49:32;97758.56;;;21.57;63.58
4024;BME280;2026;51.002;13.668;2023-07-24T19:54:36;97759.97;;;21.83;62.58
4024;BME280;2026;51.002;13.668;2023-07-24T19:59:41;97756.78;;;21.74;62.69
4024;BME280;2026;51.002;13.668;2023-07-24T20:04:44;97775.00;;;21.69;62.34
4024;BME280;2026;51.002;13.668;2023-07-24T20:09:47;97759.16;;;21.59;61.74
4024;BME280;2026;51.002;13.668;2023-07-24T20:14:53;97756.19;;;21.72;60.18
4024;BME280;2026;51.002;13.668;2023-07-24T20:19:56;97760.84;;;21.72;60.33
4024;BME280;2026;51.002;13.668;2023-07-24T20:24:59;97763.31;;;21.61;60.01
4024;BME280;2026;51.002;13.668;2023-07-24T20:30:04;97745.81;;;21.51;60.35
4024;BME280;2026;51.002;13.668;2023-07-24T20:35:08;97775.34;;;21.49;61.10
4024;BME280;2026;51.002;13.668;2023-07-24T20:40:12;97799.88;;;21.44;61.00
4024;BME280;2026;51.002;13.668;2023-07-24T20:45:16;97825.63;;;21.13;62.37
4024;BME280;2026;51.002;13.668;2023-07-24T20:50:19;97790.69;;;21.08;64.38
4024;BME280;2026;51.002;13.668;2023-07-24T20:55:22;97830.03;;;20.84;68.43
4024;BME280;2026;51.002;13.668;2023-07-24T21:00:27;97841.50;;;20.19;72.34
4024;BME280;2026;51.002;13.668;2023-07-24T21:05:30;97824.53;;;19.92;74.20
4024;BME280;2026;51.002;13.668;2023-07-24T21:10:37;97840.53;;;19.64;76.35
4024;BME280;2026;51.002;13.668;2023-07-24T21:15:42;97839.19;;;19.48;76.30
4024;BME280;2026;51.002;13.668;2023-07-24T21:20:46;97834.66;;;19.35;77.34
4024;BME280;2026;51.002;13.668;2023-07-24T21:25:53;97817.72;;;18.95;78.55
4024;BME280;2026;51.002;13.668;2023-07-24T21:31:06;97803.00;;;19.53;77.99
4024;BME280;2026;51.002;13.668;2023-07-24T21:36:09;97814.44;;;19.43;77.04
4024;BME280;2026;51.002;13.668;2023-07-24T21:41:12;97819.16;;;19.29;79.18
4024;BME280;2026;51.002;13.668;2023-07-24T21:46:16;97835.28;;;19.37;78.79
4024;BME280;2026;51.002;13.668;2023-07-24T21:51:19;97834.03;;;19.33;80.09
4024;BME280;2026;51.002;13.668;2023-07-24T21:56:22;97838.94;;;18.93;82.45
4024;BME280;2026;51.002;13.668;2023-07-24T22:01:26;97831.56;;;18.94;82.95
4024;BME280;2026;51.002;13.668;2023-07-24T22:06:30;97849.56;;;19.01;81.27
4024;BME280;2026;51.002;13.668;2023-07-24T22:11:33;97840.72;;;19.12;79.92
4024;BME280;2026;51.002;13.668;2023-07-24T22:16:38;97841.09;;;19.16;80.50
4024;BME280;2026;51.002;13.668;2023-07-24T22:21:42;97831.84;;;18.85;80.80
4024;BME280;2026;51.002;13.668;2023-07-24T22:26:45;97821.97;;;18.84;81.64
4024;BME280;2026;51.002;13.668;2023-07-24T22:31:49;97832.78;;;18.60;82.58
4024;BME280;2026;51.002;13.668;2023-07-24T22:36:52;97820.13;;;18.72;82.84
4024;BME280;2026;51.002;13.668;2023-07-24T22:41:55;97807.19;;;18.54;83.23
4024;BME280;2026;51.002;13.668;2023-07-24T22:47:02;97810.88;;;18.79;81.27
4024;BME280;2026;51.002;13.668;2023-07-24T22:52:06;97832.97;;;18.65;81.86
4024;BME280;2026;51.002;13.668;2023-07-24T22:57:09;97830.00;;;18.73;81.28
4024;BME280;2026;51.002;13.668;2023-07-24T23:02:13;97830.84;;;18.73;82.07
4024;BME280;2026;51.002;13.668;2023-07-24T23:07:16;97844.72;;;18.58;82.91
4024;BME280;2026;51.002;13.668;2023-07-24T23:12:19;97847.44;;;18.65;82.57
4024;BME280;2026;51.002;13.668;2023-07-24T23:17:24;97862.56;;;18.61;82.09
4024;BME280;2026;51.002;13.668;2023-07-24T23:22:27;97853.78;;;18.52;83.62
4024;BME280;2026;51.002;13.668;2023-07-24T23:27:30;97859.44;;;18.57;82.95
4024;BME280;2026;51.002;13.668;2023-07-24T23:32:34;97865.94;;;18.56;82.86
4024;BME280;2026;51.002;13.668;2023-07-24T23:37:37;97876.00;;;18.63;82.80
4024;BME280;2026;51.002;13.668;2023-07-24T23:42:40;97873.72;;;18.53;82.33
4024;BME280;2026;51.002;13.668;2023-07-24T23:47:44;97883.53;;;18.67;80.61
4024;BME280;2026;51.002;13.668;2023-07-24T23:52:47;97882.22;;;18.76;80.46
4024;BME280;2026;51.002;13.668;2023-07-24T23:57:51;97888.78;;;18.69;80.46
